Elizabeth, New Jersey
Current Conditions -  °F | °C
As of 3:51 AM on Thursday 23 Oct 2014 (Local Time) from KEWR Reporting Station
Overcast Overcast  
Wind Chill: 12°   Ceiling: 2300
Heat Index: 12°   Visibility: 10mi
Dew Point:   Wind: 23mph
Humidity: 80%   Direction: 350°N
Pressure: 29.7"   Gusts: 29mph
Location:  40.66°N, 74.21°W
Report Text: KEWR 230751Z 35020G25KT 10SM BKN023 OVC045 12/08 A2970 RMK AO2 PK WND 36029/0721 SLP058 T01170083 $
Loading
Personal Weather Stations






























Interactive Weather Map
Tropical Storm Tracking
New forecast layout! Learn more

10-Day Weather Forecast

Advertisements
Track Severe Weather on mobile